Time;durP1;ratioP1;P1;durP2;ratioP2;P2;SDS_P1;SDS_P2;PMS_P1;PMS_P2;Temp;Humidity;BMP_temperature;BMP_pressure;BME280_temperature;BME280_humidity;BME280_pressure;Samples;Min_cycle;Max_cycle;Signal;HPM_P1;HPM_P2
2023/09/02 13:04:07;;;;;;;3.38;1.40;;;27.60;85.00;;;;;;6213522;22;20081;-68
2023/09/02 13:06:32;;;;;;;3.45;1.20;;;27.60;84.80;;;;;;6249602;22;20000;-69
2023/09/02 13:08:58;;;;;;;2.40;1.60;;;27.70;83.70;;;;;;6249657;22;20027;-68
2023/09/02 13:11:27;;;;;;;4.13;1.70;;;27.70;84.10;;;;;;6278147;22;20007;-68
2023/09/02 13:13:53;;;;;;;4.50;1.90;;;27.70;84.00;;;;;;6260355;22;20004;-69
2023/09/02 13:16:19;;;;;;;4.65;1.70;;;27.70;84.90;;;;;;6219019;23;20008;-70
2023/09/02 13:18:45;;;;;;;2.80;1.65;;;27.70;85.70;;;;;;6245679;23;20445;-70
2023/09/02 13:21:12;;;;;;;2.15;1.40;;;27.80;85.80;;;;;;6219105;23;20008;-70
2023/09/02 13:23:38;;;;;;;3.15;1.60;;;27.80;83.20;;;;;;6245899;22;20000;-70
2023/09/02 13:26:17;;;;;;;2.30;1.75;;;27.80;83.00;;;;;;6219057;23;20334;-69
2023/09/02 13:28:43;;;;;;;5.05;1.60;;;27.90;84.00;;;;;;6245326;23;20008;-69
2023/09/02 13:31:09;;;;;;;2.97;1.50;;;28.20;83.60;;;;;;6216724;23;20338;-68
2023/09/02 13:33:41;;;;;;;2.17;1.25;;;28.00;83.90;;;;;;6245690;22;20008;-69
2023/09/02 13:36:07;;;;;;;1.98;1.08;;;28.00;83.70;;;;;;6219041;23;20012;-69
2023/09/02 13:38:33;;;;;;;3.67;1.70;;;28.00;84.10;;;;;;6246270;23;20461;-69
2023/09/02 13:40:59;;;;;;;2.00;1.50;;;27.80;84.50;;;;;;6245651;23;20038;-69
2023/09/02 13:43:25;;;;;;;3.00;1.45;;;27.70;85.20;;;;;;6245262;22;19996;-68
2023/09/02 13:45:51;;;;;;;3.00;1.58;;;27.70;84.70;;;;;;6245964;23;20004;-68
2023/09/02 13:48:18;;;;;;;4.15;1.60;;;27.70;84.70;;;;;;6245960;23;20003;-69
2023/09/02 13:50:45;;;;;;;3.30;1.30;;;27.80;84.70;;;;;;6246153;23;20000;-69
2023/09/02 13:53:14;;;;;;;2.25;1.33;;;27.80;83.80;;;;;;6219026;23;20399;-69
2023/09/02 13:55:43;;;;;;;3.25;1.30;;;27.90;83.30;;;;;;6219581;23;20338;-69
2023/09/02 13:58:19;;;;;;;2.78;1.55;;;28.00;80.60;;;;;;6247053;23;20006;-69
2023/09/02 14:00:46;;;;;;;1.63;1.02;;;28.00;81.50;;;;;;6220226;23;20342;-69
2023/09/02 14:03:22;;;;;;;3.50;1.75;;;28.20;80.90;;;;;;6246920;22;20030;-69
2023/09/02 14:05:49;;;;;;;2.70;1.30;;;28.30;81.20;;;;;;6247290;23;19996;-69
2023/09/02 14:08:37;;;;;;;2.95;1.67;;;28.50;80.80;;;;;;6246862;23;20004;-69
2023/09/02 14:11:04;;;;;;;2.00;1.48;;;28.40;81.10;;;;;;6246874;23;20407;-69
2023/09/02 14:13:37;;;;;;;4.13;1.42;;;28.50;81.40;;;;;;6246305;22;20032;-69
2023/09/02 14:16:03;;;;;;;1.98;1.38;;;28.60;81.60;;;;;;6219230;23;20079;-69
2023/09/02 14:18:29;;;;;;;2.25;1.38;;;28.50;80.60;;;;;;6246324;23;20058;-71
2023/09/02 14:20:55;;;;;;;3.20;2.35;;;28.40;81.50;;;;;;6246439;23;20011;-71
2023/09/02 14:23:20;;;;;;;2.65;1.42;;;28.30;82.50;;;;;;6245950;22;20087;-71
2023/09/02 14:25:46;;;;;;;6.57;2.20;;;28.20;82.50;;;;;;6219065;23;20375;-71
2023/09/02 14:28:11;;;;;;;3.22;1.80;;;28.30;83.80;;;;;;6219905;23;20006;-71
2023/09/02 14:30:37;;;;;;;4.28;1.73;;;28.20;86.00;;;;;;6219558;23;20032;-71
2023/09/02 14:33:04;;;;;;;3.85;1.65;;;28.20;86.60;;;;;;6220057;23;20028;-72
2023/09/02 14:35:30;;;;;;;2.92;1.30;;;28.20;85.20;;;;;;6219476;23;20074;-72
2023/09/02 14:37:55;;;;;;;4.70;2.03;;;28.10;85.80;;;;;;6246301;23;20425;-71
2023/09/02 14:40:21;;;;;;;3.20;1.77;;;28.20;86.50;;;;;;6246399;23;20007;-71
2023/09/02 14:42:46;;;;;;;4.43;1.83;;;28.20;86.30;;;;;;6220735;22;20058;-70
2023/09/02 14:45:12;;;;;;;4.28;2.40;;;28.30;86.90;;;;;;6268482;23;20121;-70
2023/09/02 14:47:38;;;;;;;3.20;1.48;;;28.40;86.80;;;;;;6235698;23;20312;-70
2023/09/02 14:50:05;;;;;;;4.72;1.80;;;28.70;85.80;;;;;;6235474;23;19999;-69
2023/09/02 14:52:35;;;;;;;3.50;1.70;;;29.00;85.20;;;;;;6237068;23;20034;-70
2023/09/02 14:55:03;;;;;;;5.20;1.40;;;29.00;85.20;;;;;;6247206;23;20438;-70
2023/09/02 14:57:29;;;;;;;4.03;1.70;;;28.90;85.20;;;;;;6248178;23;20075;-71
2023/09/02 14:59:54;;;;;;;4.43;1.30;;;28.70;84.90;;;;;;6248670;23;20028;-70
2023/09/02 15:02:39;;;;;;;7.78;2.20;;;28.50;86.10;;;;;;6247641;23;20080;-69
2023/09/02 15:05:14;;;;;;;4.35;1.50;;;28.50;86.90;;;;;;6247620;23;20095;-71
2023/09/02 15:07:40;;;;;;;2.58;1.70;;;28.40;88.10;;;;;;6220680;23;20000;-70
2023/09/02 15:10:07;;;;;;;4.30;1.70;;;28.20;88.00;;;;;;6247355;23;20000;-70
2023/09/02 15:12:33;;;;;;;4.13;2.00;;;28.10;89.50;;;;;;6220661;23;20508;-70
2023/09/02 15:15:00;;;;;;;5.38;2.95;;;28.00;87.80;;;;;;6247561;22;20358;-69
2023/09/02 15:17:30;;;;;;;3.17;1.75;;;28.00;88.20;;;;;;6220225;23;20466;-68
2023/09/02 15:19:58;;;;;;;2.38;1.58;;;27.70;89.10;;;;;;6220825;23;20008;-68
2023/09/02 15:22:24;;;;;;;2.55;1.73;;;27.60;89.90;;;;;;6247384;23;20011;-68
2023/09/02 15:24:50;;;;;;;8.65;2.17;;;27.50;88.70;;;;;;6247006;22;20060;-68
2023/09/02 15:27:21;;;;;;;6.43;2.03;;;27.50;90.30;;;;;;6247556;23;19996;-68
2023/09/02 15:29:46;;;;;;;3.10;1.50;;;27.50;90.10;;;;;;6220658;23;20450;-68
2023/09/02 15:32:12;;;;;;;6.47;1.65;;;27.40;89.50;;;;;;6247088;23;20005;-69
2023/09/02 15:34:46;;;;;;;2.55;1.60;;;27.30;89.30;;;;;;6220669;23;20062;-68
2023/09/02 15:37:16;;;;;;;4.13;1.65;;;27.20;90.10;;;;;;6247788;23;20008;-68
2023/09/02 15:39:43;;;;;;;2.65;1.50;;;27.20;90.20;;;;;;6247840;23;20001;-69
2023/09/02 15:42:09;;;;;;;3.55;1.77;;;27.20;90.10;;;;;;6220864;23;20008;-69
2023/09/02 15:44:34;;;;;;;3.17;1.50;;;27.10;90.30;;;;;;6220834;23;20126;-66
2023/09/02 15:47:12;;;;;;;4.20;2.00;;;27.00;90.20;;;;;;6247154;23;20004;-66
2023/09/02 15:49:37;;;;;;;2.58;1.48;;;27.00;89.90;;;;;;6247680;23;20330;-66
2023/09/02 15:52:03;;;;;;;3.55;1.88;;;27.00;90.30;;;;;;6246803;23;20031;-66
2023/09/02 15:54:29;;;;;;;1.88;1.50;;;27.00;90.60;;;;;;6219502;23;20435;-70
2023/09/02 15:56:54;;;;;;;2.50;1.80;;;27.00;91.60;;;;;;6220349;23;20004;-69
2023/09/02 15:59:20;;;;;;;3.58;1.80;;;27.00;91.50;;;;;;6220151;23;20014;-70
2023/09/02 16:01:45;;;;;;;2.88;1.58;;;27.00;91.70;;;;;;6220145;23;20347;-65
2023/09/02 16:04:11;;;;;;;2.90;1.65;;;26.90;91.90;;;;;;6246802;22;20020;-66
2023/09/02 16:06:36;;;;;;;4.53;1.70;;;27.00;91.50;;;;;;6247185;23;20004;-66
2023/09/02 16:09:02;;;;;;;3.60;1.67;;;26.90;91.50;;;;;;6247564;23;20079;-66
2023/09/02 16:11:28;;;;;;;3.72;1.52;;;26.80;91.60;;;;;;6247167;23;20091;-66
2023/09/02 16:13:56;;;;;;;2.22;1.50;;;26.70;92.20;;;;;;6247595;22;20135;-66
2023/09/02 16:16:21;;;;;;;3.10;1.60;;;26.60;93.60;;;;;;6247032;23;20036;-68
2023/09/02 16:18:49;;;;;;;2.42;1.70;;;26.50;93.80;;;;;;6247192;23;20000;-68
2023/09/02 16:21:15;;;;;;;3.45;1.60;;;26.40;94.20;;;;;;6247714;23;20366;-69
2023/09/02 16:23:40;;;;;;;3.83;1.85;;;26.30;94.40;;;;;;6220246;23;20008;-69
2023/09/02 16:26:06;;;;;;;;;;;26.30;94.60;;;;;;6221281;23;20028;-69
2023/09/02 16:28:31;;;;;;;8.02;4.20;;;26.40;94.10;;;;;;6246913;23;19907;-69
2023/09/02 16:30:57;;;;;;;2.58;1.80;;;26.30;94.20;;;;;;6246868;23;20004;-69
2023/09/02 16:33:25;;;;;;;1.42;1.33;;;26.20;94.30;;;;;;6248018;22;20007;-67
2023/09/02 16:35:50;;;;;;;2.55;1.50;;;26.20;94.80;;;;;;6219478;23;20014;-68
2023/09/02 16:38:17;;;;;;;;;;;26.20;94.40;;;;;;6247662;23;20368;-68
2023/09/02 16:40:42;;;;;;;5.53;1.60;;;26.20;94.10;;;;;;6246889;23;19965;-67
2023/09/02 16:43:09;;;;;;;;;;;26.20;94.20;;;;;;6247322;22;20673;-68
2023/09/02 16:45:34;;;;;;;3.75;1.55;;;26.20;94.40;;;;;;6219992;23;20329;-67
2023/09/02 16:48:04;;;;;;;;;;;26.10;94.30;;;;;;6220052;23;20000;-68
2023/09/02 16:50:29;;;;;;;2.40;1.70;;;26.10;94.60;;;;;;6220201;23;20345;-67
2023/09/02 16:52:55;;;;;;;;;;;26.00;94.80;;;;;;6247401;22;20004;-68
2023/09/02 16:55:26;;;;;;;2.55;1.63;;;25.90;94.60;;;;;;6247072;23;19911;-68
2023/09/02 16:57:53;;;;;;;3.65;1.50;;;25.80;95.50;;;;;;6220129;23;20027;-68
2023/09/02 17:00:30;;;;;;;2.50;1.60;;;25.80;95.20;;;;;;6247170;23;20007;-68
2023/09/02 17:02:55;;;;;;;4.50;1.75;;;25.80;95.10;;;;;;6220367;22;20086;-68
2023/09/02 17:05:22;;;;;;;;;;;25.80;95.30;;;;;;6248152;23;20012;-62
2023/09/02 17:07:49;;;;;;;2.50;1.67;;;25.80;95.40;;;;;;6247161;23;19974;-68
2023/09/02 17:10:23;;;;;;;3.67;1.50;;;25.70;95.60;;;;;;6247011;23;20000;-67
2023/09/02 17:12:51;;;;;;;3.03;1.38;;;25.60;95.50;;;;;;6247001;22;20004;-68
2023/09/02 17:15:16;;;;;;;3.65;1.58;;;25.60;95.50;;;;;;6246935;23;20009;-68
2023/09/02 17:17:48;;;;;;;;;;;25.60;95.70;;;;;;6246818;23;20000;-68
2023/09/02 17:20:16;;;;;;;2.40;1.52;;;25.50;95.60;;;;;;6246743;23;19977;-68
2023/09/02 17:22:41;;;;;;;2.90;1.40;;;25.50;95.80;;;;;;6246563;22;20000;-63
2023/09/02 17:25:07;;;;;;;;;;;25.40;96.50;;;;;;6247146;23;20092;-64
2023/09/02 17:27:32;;;;;;;4.57;2.10;;;25.40;95.60;;;;;;6246902;23;19904;-65
2023/09/02 17:29:59;;;;;;;;;;;25.40;96.40;;;;;;6248021;23;20004;-65
2023/09/02 17:32:25;;;;;;;2.67;1.75;;;25.40;95.90;;;;;;6246311;23;19900;-65
2023/09/02 17:34:50;;;;;;;4.32;1.70;;;25.40;95.80;;;;;;6246311;22;20142;-65
2023/09/02 17:37:16;;;;;;;;;;;25.40;96.10;;;;;;6247557;23;20011;-65
2023/09/02 17:39:41;;;;;;;5.53;4.20;;;25.30;96.50;;;;;;6246349;23;19900;-66
2023/09/02 17:42:07;;;;;;;;;;;25.30;96.40;;;;;;6246690;23;20015;-65
2023/09/02 17:44:32;;;;;;;2.75;1.63;;;25.20;96.10;;;;;;6246404;22;19916;-65
2023/09/02 17:46:58;;;;;;;;;;;25.20;96.80;;;;;;6219233;23;20032;-64
2023/09/02 17:49:23;;;;;;;2.75;1.55;;;25.10;96.90;;;;;;6246405;23;19907;-64
2023/09/02 17:51:49;;;;;;;;;;;25.00;97.10;;;;;;6219876;23;20023;-64
2023/09/02 17:54:14;;;;;;;4.50;2.38;;;24.90;97.40;;;;;;6246084;22;19933;-65
2023/09/02 17:56:40;;;;;;;;;;;24.80;97.20;;;;;;6246578;23;20000;-64
2023/09/02 17:59:05;;;;;;;2.50;1.90;;;24.80;97.20;;;;;;6243395;23;19899;-64
2023/09/02 18:01:31;;;;;;;;;;;24.80;97.40;;;;;;6245301;23;20014;-64
2023/09/02 18:03:56;;;;;;;3.40;1.50;;;24.70;97.60;;;;;;6246247;22;19911;-65
2023/09/02 18:06:21;;;;;;;;;;;24.70;98.10;;;;;;6246878;23;20081;-65
2023/09/02 18:08:48;;;;;;;93.80;73.25;;;24.70;97.80;;;;;;6246156;23;19899;-65
2023/09/02 18:11:14;;;;;;;15.00;10.45;;;24.70;97.80;;;;;;6245083;23;20083;-65
2023/09/02 18:13:39;;;;;;;;;;;24.60;97.90;;;;;;6245409;22;20028;-65
2023/09/02 18:16:05;;;;;;;2.95;2.15;;;24.60;97.90;;;;;;6245111;23;19900;-65
2023/09/02 18:18:30;;;;;;;;;;;24.70;98.00;;;;;;6246118;23;20008;-65
2023/09/02 18:20:56;;;;;;;5.93;3.17;;;24.50;98.80;;;;;;6245213;23;19903;-65
2023/09/02 18:23:21;;;;;;;;;;;24.50;98.80;;;;;;6219258;23;20434;-65
2023/09/02 18:25:46;;;;;;;20.30;18.65;;;24.40;99.80;;;;;;6246422;23;19965;-67
2023/09/02 18:28:12;;;;;;;;;;;24.30;99.40;;;;;;6246450;23;20000;-69
2023/09/02 18:30:37;;;;;;;4.18;3.78;;;24.30;99.70;;;;;;6245919;23;19935;-68
2023/09/02 18:33:03;;;;;;;;;;;24.30;99.90;;;;;;6246425;22;20000;-67
2023/09/02 18:35:29;;;;;;;4.18;2.03;;;24.20;99.90;;;;;;6245993;23;19906;-67
2023/09/02 18:37:54;;;;;;;;;;;24.20;99.90;;;;;;6247052;23;20008;-67
2023/09/02 18:40:20;;;;;;;4.35;1.90;;;24.10;99.90;;;;;;6218566;23;19899;-66
2023/09/02 18:42:45;;;;;;;;;;;24.00;99.90;;;;;;6219661;22;20000;-66
2023/09/02 18:45:13;;;;;;;4.43;2.00;;;24.00;99.90;;;;;;6244783;23;19903;-66
2023/09/02 18:47:39;;;;;;;3.20;1.75;;;23.90;99.90;;;;;;6245880;23;20000;-65
2023/09/02 18:50:05;;;;;;;5.47;2.20;;;23.80;99.90;;;;;;6218036;23;20000;-67
2023/09/02 18:52:31;;;;;;;;;;;23.80;99.90;;;;;;6246055;23;20346;-66
2023/09/02 18:54:56;;;;;;;5.60;2.20;;;23.80;99.90;;;;;;6245536;22;20277;-65
2023/09/02 18:57:22;;;;;;;;;;;23.70;99.90;;;;;;6219354;23;20431;-66
2023/09/02 18:59:47;;;;;;;4.22;2.20;;;23.60;99.90;;;;;;6245856;23;19899;-65
2023/09/02 19:02:13;;;;;;;;;;;23.60;99.90;;;;;;6247356;23;20000;-65
2023/09/02 19:04:38;;;;;;;4.97;2.28;;;23.60;99.90;;;;;;6246837;22;19907;-65
2023/09/02 19:07:04;;;;;;;4.75;3.20;;;23.60;99.90;;;;;;6247670;23;20053;-66
2023/09/02 19:09:29;;;;;;;;;;;23.50;99.90;;;;;;6248015;23;20015;-64
2023/09/02 19:11:55;;;;;;;3.47;2.20;;;23.50;99.90;;;;;;6246286;23;19899;-64
2023/09/02 19:14:20;;;;;;;;;;;23.50;99.90;;;;;;6245991;22;20489;-64
2023/09/02 19:16:46;;;;;;;4.80;2.17;;;23.40;99.90;;;;;;6246163;23;20273;-64
2023/09/02 19:19:11;;;;;;;;;;;23.40;99.90;;;;;;6246365;23;20000;-64
2023/09/02 19:21:37;;;;;;;4.38;2.08;;;23.30;99.90;;;;;;6218446;23;19903;-64
2023/09/02 19:24:03;;;;;;;;;;;23.30;99.90;;;;;;6246198;22;20004;-64
2023/09/02 19:26:28;;;;;;;3.03;1.90;;;23.30;99.90;;;;;;6246029;23;20281;-65
2023/09/02 19:28:54;;;;;;;3.90;2.45;;;23.30;99.90;;;;;;6220566;23;20130;-64
2023/09/02 19:31:19;;;;;;;;;;;23.20;99.90;;;;;;6248357;23;20050;-64
2023/09/02 19:33:45;;;;;;;3.22;2.42;;;23.10;99.90;;;;;;6247929;22;20237;-65
2023/09/02 19:36:10;;;;;;;;;;;23.10;99.90;;;;;;6247100;23;20197;-65
2023/09/02 19:38:36;;;;;;;5.40;3.88;;;23.10;99.90;;;;;;6246901;23;19927;-65
2023/09/02 19:41:08;;;;;;;;;;;23.10;99.90;;;;;;6247425;23;20470;-65
2023/09/02 19:46:06;;;;;;;8.23;2.55;;;23.10;99.90;;;;;;6278037;22;20052;-68
2023/09/02 19:48:31;;;;;;;4.97;2.67;;;23.10;99.90;;;;;;6277521;22;20003;-67
2023/09/02 19:50:57;;;;;;;2.72;2.40;;;23.00;99.90;;;;;;6250521;22;20008;-67
2023/09/02 19:53:22;;;;;;;;;;;22.90;99.90;;;;;;6277433;22;19999;-67
2023/09/02 19:55:52;;;;;;;2.83;2.15;;;22.90;99.90;;;;;;6248917;22;19899;-68
2023/09/02 19:58:18;;;;;;;2.67;1.73;;;22.80;99.90;;;;;;6247486;23;20379;-68
2023/09/02 20:00:45;;;;;;;4.10;2.00;;;22.80;99.90;;;;;;6246891;23;20003;-68
2023/09/02 20:03:15;;;;;;;3.05;2.40;;;22.80;99.90;;;;;;6247249;23;19999;-68
2023/09/02 20:05:41;;;;;;;6.18;2.65;;;22.70;99.90;;;;;;6247519;22;20027;-68
2023/09/02 20:08:08;;;;;;;4.28;2.65;;;22.70;99.90;;;;;;6246724;23;20135;-67
2023/09/02 20:10:35;;;;;;;3.15;2.28;;;22.70;99.90;;;;;;6221047;23;20355;-68
2023/09/02 20:13:01;;;;;;;4.43;3.00;;;22.60;99.90;;;;;;6247847;23;20415;-68
2023/09/02 20:15:27;;;;;;;4.40;2.28;;;22.60;99.90;;;;;;6247727;22;20015;-68
2023/09/02 20:17:52;;;;;;;3.20;2.30;;;22.50;99.90;;;;;;6247021;23;20008;-68
2023/09/02 20:20:18;;;;;;;;;;;22.50;99.90;;;;;;6247514;23;20004;-68
2023/09/02 20:22:45;;;;;;;3.38;1.90;;;22.50;99.90;;;;;;6219427;23;19907;-68
2023/09/02 20:25:10;;;;;;;6.00;3.38;;;22.50;99.90;;;;;;6246390;22;20004;-69
2023/09/02 20:27:37;;;;;;;4.93;2.28;;;22.50;99.90;;;;;;6220215;23;20000;-68
2023/09/02 20:30:03;;;;;;;6.47;2.50;;;22.40;99.90;;;;;;6246359;23;20050;-68
2023/09/02 20:32:28;;;;;;;5.07;2.90;;;22.40;99.90;;;;;;6219987;23;20079;-68
2023/09/02 20:34:54;;;;;;;8.20;5.55;;;22.30;99.90;;;;;;6246212;22;20000;-68
2023/09/02 20:37:20;;;;;;;5.13;3.65;;;22.30;99.90;;;;;;6246271;23;20011;-66
2023/09/02 20:39:45;;;;;;;6.10;3.38;;;22.20;99.90;;;;;;6246630;23;20023;-67
2023/09/02 20:42:11;;;;;;;;;;;22.10;99.90;;;;;;6220086;23;20027;-67
2023/09/02 20:44:36;;;;;;;5.50;3.38;;;22.20;99.90;;;;;;6246259;22;19926;-68
2023/09/02 20:47:02;;;;;;;6.85;3.40;;;22.10;99.90;;;;;;6219971;23;20004;-67
2023/09/02 20:49:29;;;;;;;3.85;2.72;;;22.10;99.90;;;;;;6246831;23;20028;-67
2023/09/02 20:51:54;;;;;;;4.38;3.22;;;22.10;99.90;;;;;;6219626;23;20092;-68
2023/09/02 20:54:20;;;;;;;7.55;4.57;;;22.10;99.90;;;;;;6246654;22;19996;-67
2023/09/02 20:56:46;;;;;;;8.32;4.85;;;22.00;99.90;;;;;;6219913;23;20008;-67
2023/09/02 20:59:11;;;;;;;7.32;4.80;;;22.00;99.90;;;;;;6220205;23;20008;-67
2023/09/02 21:01:37;;;;;;;8.70;4.85;;;22.10;99.90;;;;;;6248794;23;20004;-68
2023/09/02 21:04:03;;;;;;;7.43;5.45;;;22.00;99.90;;;;;;6248911;22;20138;-68
2023/09/02 21:06:29;;;;;;;6.60;4.50;;;22.00;99.90;;;;;;6221927;23;20003;-67
2023/09/02 21:08:54;;;;;;;8.68;5.72;;;21.90;99.90;;;;;;6247632;23;20075;-67
2023/09/02 21:11:20;;;;;;;11.43;8.55;;;21.90;99.90;;;;;;6246843;23;20043;-68
2023/09/02 21:13:47;;;;;;;7.13;4.22;;;21.90;99.90;;;;;;6247163;22;20011;-68
2023/09/02 21:16:22;;;;;;;9.38;4.90;;;21.90;99.90;;;;;;6220763;23;20004;-68
2023/09/02 21:18:47;;;;;;;11.20;5.88;;;21.80;99.90;;;;;;6248786;23;20023;-68
2023/09/02 21:21:21;;;;;;;6.60;4.25;;;21.80;99.90;;;;;;6247671;23;20008;-66
2023/09/02 21:23:46;;;;;;;7.93;4.13;;;21.80;99.90;;;;;;6220069;22;20000;-67
2023/09/02 21:26:13;;;;;;;5.60;3.75;;;21.70;99.90;;;;;;6220731;23;19996;-67
2023/09/02 21:28:40;;;;;;;4.78;3.72;;;21.70;99.90;;;;;;6219687;23;20028;-67
2023/09/02 21:31:07;;;;;;;6.70;4.57;;;21.70;99.90;;;;;;6220509;23;20011;-68
2023/09/02 21:33:32;;;;;;;4.35;3.67;;;21.70;99.90;;;;;;6251142;22;20004;-68
2023/09/02 21:35:58;;;;;;;6.93;3.88;;;21.60;99.90;;;;;;6254741;23;20513;-68
2023/09/02 21:38:24;;;;;;;7.60;4.05;;;21.60;99.90;;;;;;6253320;23;20435;-70
2023/09/02 21:41:05;;;;;;;5.75;3.58;;;21.60;99.90;;;;;;6252727;23;19996;-69
2023/09/02 21:43:34;;;;;;;9.40;4.22;;;21.50;99.90;;;;;;6220191;23;20061;-69
2023/09/02 21:46:05;;;;;;;6.60;4.03;;;21.50;99.90;;;;;;6246020;23;20061;-69
2023/09/02 21:48:31;;;;;;;6.00;4.13;;;21.40;99.90;;;;;;6246931;23;20042;-68
2023/09/02 21:50:59;;;;;;;8.65;4.70;;;21.40;99.90;;;;;;6246239;23;20000;-69
2023/09/02 21:53:25;;;;;;;5.95;4.38;;;21.30;99.90;;;;;;6246090;23;20000;-68
2023/09/02 21:55:51;;;;;;;5.40;4.20;;;21.30;99.90;;;;;;6219586;23;20068;-69
2023/09/02 21:58:16;;;;;;;5.10;3.88;;;21.30;99.90;;;;;;6246396;23;20024;-69
2023/09/02 22:00:42;;;;;;;5.18;3.58;;;21.20;99.90;;;;;;6245956;23;20000;-68
2023/09/02 22:03:07;;;;;;;6.88;3.67;;;21.20;99.90;;;;;;6246122;23;20016;-69
2023/09/02 22:05:33;;;;;;;5.78;4.15;;;21.10;99.90;;;;;;6246080;22;19996;-69
2023/09/02 22:07:58;;;;;;;6.10;4.63;;;21.10;99.90;;;;;;6246078;23;20546;-69
2023/09/02 22:10:25;;;;;;;5.03;3.70;;;21.10;99.90;;;;;;6218956;23;20501;-69
2023/09/02 22:12:50;;;;;;;7.40;4.20;;;21.00;99.90;;;;;;6219025;23;20008;-68
2023/09/02 22:15:16;;;;;;;4.97;3.78;;;21.00;99.90;;;;;;6245600;22;20004;-68
2023/09/02 22:17:41;;;;;;;5.40;3.42;;;21.00;99.90;;;;;;6246022;23;20335;-69
2023/09/02 22:20:07;;;;;;;5.15;3.90;;;20.90;99.90;;;;;;6245982;23;20445;-69
2023/09/02 22:22:33;;;;;;;6.60;3.97;;;20.80;99.90;;;;;;6246132;23;20007;-68
2023/09/02 22:24:58;;;;;;;5.20;3.90;;;20.80;99.90;;;;;;6245876;22;20003;-69
2023/09/02 22:27:25;;;;;;;6.97;4.82;;;20.80;99.90;;;;;;6245752;23;20000;-69
2023/09/02 22:29:50;;;;;;;5.28;3.70;;;20.70;99.90;;;;;;6218838;23;20062;-68
2023/09/02 22:32:16;;;;;;;5.75;3.45;;;20.70;99.90;;;;;;6218701;23;19996;-69
2023/09/02 22:34:41;;;;;;;3.50;2.72;;;20.70;99.90;;;;;;6218984;23;20004;-69
2023/09/02 22:37:07;;;;;;;12.05;7.75;;;20.70;99.90;;;;;;6245862;23;20138;-68
2023/09/02 22:39:32;;;;;;;8.13;4.85;;;20.70;99.90;;;;;;6245729;23;20008;-68
2023/09/02 22:41:58;;;;;;;8.68;5.47;;;20.60;99.90;;;;;;6245805;23;20435;-69
2023/09/02 22:44:24;;;;;;;7.38;4.35;;;20.60;99.90;;;;;;6245928;22;20054;-69
2023/09/02 22:46:49;;;;;;;6.93;3.78;;;20.60;99.90;;;;;;6218865;23;20004;-69
2023/09/02 22:49:25;;;;;;;5.45;3.33;;;20.60;99.90;;;;;;6245991;23;20327;-69
2023/09/02 22:51:51;;;;;;;7.65;3.83;;;20.60;99.90;;;;;;6245886;23;20008;-69
2023/09/02 22:54:16;;;;;;;6.65;3.47;;;20.60;99.90;;;;;;6245704;22;20375;-68
2023/09/02 22:56:42;;;;;;;4.22;3.17;;;20.50;99.90;;;;;;6245570;23;20058;-69
2023/09/02 22:59:07;;;;;;;5.00;3.70;;;20.50;99.90;;;;;;6218731;23;20004;-68
2023/09/02 23:01:33;;;;;;;7.00;4.15;;;20.50;99.90;;;;;;6245090;23;20046;-69
2023/09/02 23:03:58;;;;;;;4.55;3.92;;;20.40;99.90;;;;;;6220311;23;20004;-68
2023/09/02 23:06:24;;;;;;;7.43;3.28;;;20.30;99.90;;;;;;6247388;23;20304;-68
2023/09/02 23:08:50;;;;;;;5.53;3.60;;;20.30;99.90;;;;;;6247156;23;20428;-68
2023/09/02 23:11:15;;;;;;;6.20;4.00;;;20.30;99.90;;;;;;6247354;23;20008;-68
2023/09/02 23:13:42;;;;;;;9.77;3.47;;;20.30;99.90;;;;;;6220412;22;20439;-68
2023/09/02 23:16:08;;;;;;;6.15;3.30;;;20.30;99.90;;;;;;6247178;23;20000;-69
2023/09/02 23:18:34;;;;;;;5.60;3.42;;;20.30;99.90;;;;;;6247856;23;20075;-68
2023/09/02 23:21:13;;;;;;;9.50;4.03;;;20.20;99.90;;;;;;6247199;23;20034;-69
2023/09/02 23:23:39;;;;;;;6.43;4.00;;;20.30;99.90;;;;;;6247261;22;19996;-69
2023/09/02 23:26:04;;;;;;;5.35;3.38;;;20.10;99.90;;;;;;6220618;23;20004;-68
2023/09/02 23:28:30;;;;;;;5.07;3.92;;;20.10;99.90;;;;;;6247322;23;20001;-68
2023/09/02 23:30:57;;;;;;;6.90;3.80;;;20.00;99.90;;;;;;6220082;23;20000;-68
2023/09/02 23:33:23;;;;;;;9.80;4.60;;;20.10;99.90;;;;;;6220453;23;20004;-68
2023/09/02 23:35:55;;;;;;;6.68;4.03;;;20.00;99.90;;;;;;6247132;22;19996;-67
2023/09/02 23:38:25;;;;;;;9.88;3.72;;;20.00;99.90;;;;;;6220357;23;20084;-67
2023/09/02 23:40:51;;;;;;;6.57;4.40;;;20.00;99.90;;;;;;6247470;23;20046;-67
2023/09/02 23:43:19;;;;;;;5.20;3.95;;;19.90;99.90;;;;;;6247394;23;20312;-68
2023/09/02 23:45:48;;;;;;;28.75;12.27;;;19.90;99.90;;;;;;6241594;23;20015;-68
2023/09/02 23:48:14;;;;;;;33.97;26.92;;;19.90;99.90;;;;;;6247311;22;20062;-68
2023/09/02 23:50:41;;;;;;;5.47;3.88;;;19.80;99.90;;;;;;6247732;22;20058;-68
2023/09/02 23:53:06;;;;;;;5.47;3.38;;;19.80;99.90;;;;;;6247508;22;20387;-69
2023/09/02 23:55:32;;;;;;;6.68;3.72;;;19.80;99.90;;;;;;6247457;22;20004;-69
2023/09/02 23:57:58;;;;;;;8.25;4.15;;;19.80;99.90;;;;;;6247417;23;20028;-69
